Cocoa Beach, FL (32931)

1:37 AM EST on February 08, 2016 (GMT -0500)
The Weather Reporter | | Change Station
CLOSE
Current Station
Personal Weather Station
Location: Merritt Island, FL
Elevation: 13 ft
Nearby Weather Stations

Elev 13 ft 28.36 °N, 80.66 °W | Updated 14 minutes ago

Clear
Clear
47.5 °F
Feels Like 48 °F
N
0.0
Wind Variable Wind from West

Today
High -- | Low -- °F
--% Chance of Precip.
Yesterday
High -- | Low -- °F
Precip. -- in
Pressure 30.09 in
Visibility 10.0 miles
Clouds Clear
Windchill 48 °F
Dew Point 41 °F
Humidity 77%
Rainfall 0.00 in
Snow Depth Not available.
7:06 AM 6:07 PM
Waning Crescent, 0% visible
METAR KCOF 080558Z AUTO 30009KT 10SM CLR 09/04 A3007 RMK AO2 SLP187 T00930042 10124 20092 50003 $
Pressure 30.09 in
Visibility 10.0 miles
Clouds Clear
Windchill 48 °F
Dew Point 41 °F
Humidity 77%
Rainfall 0.00 in
Snow Depth Not available.
7:06 AM 6:07 PM
Waning Crescent, 0% visible
METAR KCOF 080558Z AUTO 30009KT 10SM CLR 09/04 A3007 RMK AO2 SLP187 T00930042 10124 20092 50003 $

10-Day Weather Forecast

Almanac

Astronomy

Feb. 08, 2016 Rise Set
Actual Time
Civil Twilight
Nautical Twilight
Astronomical Twilight
Moon
Length of Visible Light
Length of Day
Tomorrow will be .
, % of the Moon is Illuminated

Today's Extremes

State Highs State Lows

Community

WunderPhotos

Upload Photos

1,891,395 photos uploaded!

WunderBlog® & News

Nearby

Air Quality

  Air Quality AQ Index Pollutant
Not available.

Snow Depth

Station Depth Elevation

Earthquake Activity

City Distance Mag. Time & Date
Minimum magnitude displayed is 2.5.

Coastal Water Temperatures

Place Temperature

Stations

Nearby Weather Stations

Station Location Temp. Windchill Dew Point Humidity Wind Precip. Elev Updated Type
                   

Watches & Warnings

There are currently no watches in effect.